Terminal Aerodrome Forecast
Issued by NWS

Home | Current Version | Previous Version | Text Only | Print | Product List | Glossary On
Versions: 1 2 3 4 5 6 7 8 9 10 11 12 13 14 15 16 17 18 19 20 21 22 23 24 25 26 27 28 29 30 31 32 33 34
667
FTUS44 KLIX 290722 AAA
TAFHUM
TAF AMD
KHUM 290722Z 2907/3006 00000KT 5SM BR SKC
      TEMPO 2907/2911 1 1/2SM BR VV007
     FM291200 00000KT 4SM BR FEW030
     FM291800 VRB03KT P6SM BKN100
     FM300000 VRB04KT P6SM SCT250=

USA.gov is the U.S. government's official web portal to all federal, state and local government web resources and services.